Tiempo atmosférico en la estación meteorológica de Cáseda, Navarra (440 m.)



Fecha
DESCASC
Temp. máxima en grados centígrados (hora)
DESCASC
Temp. mínima en grados centígrados (hora)
DESCASC
Temp. media en grados centígrados
DESCASC
Racha de viento máxima en m/sg (hora)
DESCASC
Velocidad máxima media en intervalos de 10 minutos(hora)
DESCASC
Precipitaciones diarias en mm
DESCASC
Precipitaciones de 00:00 a 06:00 en mm
DESCASC
Precipitaciones de 06:00 a 12:00 en mm
DESCASC
Precipitaciones de 12:00 a 18:00 en mm
DESCASC
Precipitaciones de 18:00 a 24:00 en mm
DESCASC
28-02-2021 10.5 (20:20) 5.2 (03:30) 7.8 11.67 (22:40) 6.11 (22:40) 2.4 0 0.2 2.2 0
27-02-2021 16.5 (16:00) 4.3 (07:40) 10.4 8.06 (11:30) 4.44 (15:00) 0 0 0 0 0
26-02-2021 17.3 (16:30) 4.4 (07:30) 10.8 5 (21:20) 3.33 (21:20) 0 0 0 0 0
25-02-2021 16.1 (15:30) 5.9 (00:00) 11 6.67 (06:50) 5.28 (06:50) 0 0 0 0 0
24-02-2021 18.4 (15:30) 9.3 (00:00) 13.8 11.67 (12:20) 6.67 (12:20) 0 0 0 0 0
23-02-2021 15.1 (14:30) 6.2 (00:00) 10.7 11.39 (14:50) 6.94 (14:40) 0 0 0 0 0
22-02-2021 13.5 (00:00) 4.8 (00:00) 9.2 10.28 (05:50) 5.28 (05:50) 35 9.8 17.4 7.2 0.6
21-02-2021 15.7 (11:50) 10.4 (00:00) 13 15.83 (00:20) 9.72 (12:50) 0 0 0 0 0
20-02-2021 20.7 (14:40) 8.1 (00:00) 14.4 17.5 (23:30) 10.28 (23:30) 0 0 0 0 0
19-02-2021 18 (15:50) 4.6 (00:00) 11.3 12.5 (14:40) 7.5 (13:20) 0 0 0 0 0
18-02-2021 18.3 (16:10) 5.4 (00:00) 11.8 10.83 (11:50) 6.67 (11:30) 0 0 0 0 0
17-02-2021 17.3 (14:10) 4.5 (00:00) 10.9 10 (14:30) 6.11 (15:20) 0 0 0 0 0
16-02-2021 16.5 (16:10) 3.4 (00:00) 10 10.28 (13:50) 6.39 (13:50) 0 0 0 0 0
15-02-2021 14.1 (15:10) 4.6 (00:00) 9.4 8.89 (15:10) 6.11 (20:10) 0 0 0 0 0
14-02-2021 14.1 (14:20) 1.2 (00:00) 7.7 11.94 (14:50) 7.5 (14:50) 0 0 0 0 0
13-02-2021 14.3 (13:20) 6.3 (00:00) 10.3 9.17 (00:20) 5.56 (00:10) 0 0 0 0 0
12-02-2021 12.6 (15:30) 6.6 (00:00) 9.6 11.11 (16:40) 6.11 (23:00) 4 0 3.2 0.4 0.4
11-02-2021 14.5 (15:50) 1.7 (00:00) 8.1 3.89 (18:50) 3.33 (18:50) 0 0 0 0 0
10-02-2021 11.3 (13:40) 3.4 (00:00) 7.4 7.78 (15:00) 4.72 (14:00) 5.6 0 5.6 0 0
09-02-2021 10.1 (11:30) 4 (00:00) 7.1 13.06 (12:40) 8.33 (12:40) 2.8 0 0 2.6 0.2
08-02-2021 12.6 (15:30) 4.5 (00:00) 8.6 11.67 (16:30) 6.39 (16:30) 0.4 0.2 0.2 0 0
07-02-2021 10 (15:50) 4.3 (00:00) 7.2 8.89 (02:50) 4.44 (07:20) 0.8 0 0 0 0.8
06-02-2021 10.5 (01:30) 5.8 (00:00) 8.2 10 (05:50) 6.11 (05:50) 10.2 0 8.8 1.4 0
05-02-2021 18.8 (15:10) 7.9 (00:00) 13.3 10.56 (14:10) 6.11 (14:10) 0 0 0 0 0
04-02-2021 17.9 (13:50) 8.6 (00:00) 13.3 10.28 (15:20) 5.83 (15:20) 0 0 0 0 0
03-02-2021 14.7 (13:10) 6.9 (00:00) 10.8 10.28 (10:10) 6.11 (10:00) 1.2 0 0 1.2 0
02-02-2021 17.8 (15:20) 5.7 (05:30) 11.7 9.17 (21:20) 5.56 (21:20) 0 0 0 0 0
01-02-2021 13.9 (12:10) 6.9 (00:00) 10.4 8.89 (12:50) 5.83 (12:50) 0.6 0.4 0 0 0.2
31-01-2021 11.7 (15:10) 5.7 (00:00) 8.7 9.17 (23:10) 6.39 (23:10) 0.2 0 0.2 0 0
30-01-2021 13.5 (15:40) 5.4 (00:00) 9.5 18.61 (12:10) 10 (12:40) 6 0 3.4 2 0.6

Gráficas

Temp. máximas Temp. mínimas Temp. medias Precipitaciones Rachas de viento máximas Velocidades máximas media en intervalos de 10 minutos

Datos horarios

Fecha y hora oficial Temperatura (ºC) Velocidad del viento (km/h) Dirección del viento Racha (km/h) Dirección de racha Precipitación (mm) Presión (hPa) Tendencia (hPa) Humedad (%)
2021-02-28 23:00:00 10.4 18 Sudeste 42 Sur 0 -- -- 69
2021-02-28 22:00:00 10.2 6 Sur 32 Sudeste 0 -- -- 70
2021-02-28 21:00:00 10.3 8 Sudoeste 35 Sudeste 0 -- -- 70
2021-02-28 20:00:00 9.5 7 Nordeste 24 Sudeste 0 -- -- 83
2021-02-28 19:00:00 9.2 2 Norte 9 Nordeste 0 -- -- 85
2021-02-28 18:00:00 9.6 5 Nordeste 23 Sudeste 0.2 -- -- 83
2021-02-28 17:00:00 10.2 8 Este 24 Sudeste 0.4 -- -- 81
2021-02-28 16:00:00 10 3 Este 8 Nordeste 0 -- -- 87
2021-02-28 15:00:00 8.7 3 Noroeste 5 Oeste 0 -- -- 88
2021-02-28 14:00:00 7.7 0 Calma 6 Nordeste 0.6 -- -- 90
2021-02-28 13:00:00 7.3 3 Noroeste 6 Oeste 1 -- -- 89
2021-02-28 12:00:00 7.5 3 Nordeste 5 Nordeste 0.2 -- -- 83
2021-02-28 11:00:00 6.9 2 Este 5 Este 0 -- -- 81
2021-02-28 10:00:00 6.4 2 Este 5 Este 0 -- -- 82
2021-02-28 09:00:00 6.1 2 Nordeste 6 Este 0 -- -- 86
2021-02-28 08:00:00 5.8 2 Nordeste 4 Sudeste 0 -- -- 90
2021-02-28 07:00:00 5.6 2 Sudeste 6 Nordeste 0 -- -- 89
2021-02-28 06:00:00 5.7 2 Este 7 Sur 0 -- -- 90
2021-02-28 05:00:00 5.5 4 Sur 7 Sur 0 -- -- 89
2021-02-28 04:00:00 5.2 6 Sur 9 Sur 0 -- -- 87
2021-02-28 03:00:00 5.7 0 Calma 5 Este 0 -- -- 80
2021-02-28 02:00:00 5.8 3 Este 5 Este 0 -- -- 78
2021-02-28 01:00:00 5.7 0 Calma 6 Sudeste 0 -- -- 73
2021-02-28 00:00:00 6.7 5 Sudoeste 12 Sur 0 -- -- 68
2021-02-27 23:00:00 7.8 4 Sudeste 10 Norte 0 -- -- 65
2021-02-27 22:00:00 8.7 2 Norte 23 Nordeste 0 -- -- 62
2021-02-27 21:00:00 9.6 13 Norte 25 Nordeste 0 -- -- 59
2021-02-27 20:00:00 10.5 13 Nordeste 27 Norte 0 -- -- 55
2021-02-27 19:00:00 11.8 8 Norte 19 Norte 0 -- -- 50
2021-02-27 18:00:00 13.7 10 Norte 23 Noroeste 0 -- -- 46
2021-02-27 17:00:00 15.5 10 Norte 24 Norte 0 -- -- 41
2021-02-27 16:00:00 16.5 9 Noroeste 27 Norte 0 -- -- 41
2021-02-27 15:00:00 15.8 16 Noroeste 28 Noroeste 0 -- -- 44
2021-02-27 14:00:00 15.1 13 Noroeste 24 Noroeste 0 -- -- 47
2021-02-27 13:00:00 14.8 11 Noroeste 26 Nordeste 0 -- -- 49
2021-02-27 12:00:00 13.5 12 Noroeste 29 Norte 0 -- -- 57
2021-02-27 11:00:00 12.2 9 Norte 24 Noroeste 0 -- -- 67
2021-02-27 10:00:00 9.6 3 Este 6 Este 0 -- -- 80
2021-02-27 09:00:00 6.2 4 Este 9 Sudeste 0 -- -- 91
2021-02-27 08:00:00 4.5 0 Calma 6 Este 0 -- -- 93
2021-02-27 07:00:00 4.7 2 Nordeste 6 Sudeste 0 -- -- 91
2021-02-27 06:00:00 5.6 4 Este 7 Sudeste 0 -- -- 89
2021-02-27 05:00:00 6.6 7 Este 13 Este 0 -- -- 88
2021-02-27 04:00:00 7.2 7 Este 15 Este 0 -- -- 87
2021-02-27 03:00:00 7.6 9 Este 17 Este 0 -- -- 87
2021-02-27 02:00:00 8.1 9 Este 14 Este 0 -- -- 86
2021-02-27 01:00:00 8.4 8 Sudeste 15 Sudeste 0 -- -- 85
2021-02-27 00:00:00 9.1 7 Este 12 Este 0 -- -- 83
2021-02-26 23:00:00 9.3 7 Este 14 Este 0 -- -- 82
2021-02-26 22:00:00 9.9 10 Sudeste 18 Este 0 -- -- 81
2021-02-26 21:00:00 10.5 9 Sudeste 15 Sudeste 0 -- -- 79
2021-02-26 20:00:00 11.8 7 Sudeste 10 Sudeste 0 -- -- 76
2021-02-26 19:00:00 13.9 5 Sur 8 Sur 0 -- -- 70
2021-02-26 18:00:00 16.3 3 Sur 8 Oeste 0 -- -- 62
2021-02-26 17:00:00 17.3 0 Calma 8 Sudeste 0 -- -- 55
2021-02-26 16:00:00 16.9 2 Este 11 Sudeste 0 -- -- 59
2021-02-26 15:00:00 16.3 5 Nordeste 8 Nordeste 0 -- -- 59
2021-02-26 14:00:00 14.6 4 Este 8 Nordeste 0 -- -- 65
2021-02-26 13:00:00 12.9 4 Nordeste 9 Norte 0 -- -- 74
2021-02-26 12:00:00 11.2 5 Noroeste 9 Nordeste 0 -- -- 78
2021-02-26 11:00:00 9.3 4 Nordeste 8 Nordeste 0 -- -- 81
2021-02-26 10:00:00 8 4 Nordeste 10 Este 0 -- -- 86
2021-02-26 09:00:00 5.8 0 Calma 7 Nordeste 0 -- -- 96
2021-02-26 08:00:00 4.7 4 Sudeste 7 Sudeste 0 -- -- 96
2021-02-26 07:00:00 4.6 0 Calma 3 Noroeste 0 -- -- 95
2021-02-26 06:00:00 5 0 Calma 6 Sudeste 0 -- -- 95
2021-02-26 05:00:00 4.9 2 Sudeste 4 Sudeste 0 -- -- 93
2021-02-26 04:00:00 5.7 3 Este 8 Sudeste 0 -- -- 94
2021-02-26 03:00:00 6 2 Este 3 Este 0 -- -- 93
2021-02-26 02:00:00 6.1 3 Este 5 Sudeste 0 -- -- 93
2021-02-26 01:00:00 6 0 Calma 4 Sudoeste 0 -- -- 91
2021-02-26 00:00:00 6.9 2 Este 5 Sudeste 0 -- -- 90
2021-02-25 23:00:00 7.6 2 Este 4 Sur 0 -- -- 87
2021-02-25 22:00:00 8 2 Este 8 Este 0 -- -- 88
2021-02-25 21:00:00 8.9 3 Este 5 Sur 0 -- -- 83
2021-02-25 20:00:00 9.9 6 Sur 10 Sur 0 -- -- 80
2021-02-25 19:00:00 11.3 5 Sur 14 Sudoeste 0 -- -- 75
2021-02-25 18:00:00 12.8 10 Sudoeste 21 Sudoeste 0 -- -- 69
2021-02-25 17:00:00 14.4 12 Sudoeste 22 Sudoeste 0 -- -- 66
2021-02-25 16:00:00 15.2 10 Sudoeste 24 Sudoeste 0 -- -- 63
2021-02-25 15:00:00 15.8 9 Sudoeste 16 Sudoeste 0 -- -- 60
2021-02-25 14:00:00 14.4 4 Noroeste 13 Nordeste 0 -- -- 61
2021-02-25 13:00:00 13.9 7 Nordeste 18 Norte 0 -- -- 62
2021-02-25 12:00:00 12.5 5 Norte 15 Oeste 0 -- -- 68
2021-02-25 11:00:00 10.3 4 Nordeste 7 Nordeste 0 -- -- 79
2021-02-25 10:00:00 7.8 4 Este 6 Este 0 -- -- 88
2021-02-25 09:00:00 6.8 2 Norte 6 Sudoeste 0 -- -- 90
2021-02-25 08:00:00 5.9 0 Calma 21 Sur 0 -- -- 90
2021-02-25 07:00:00 6.8 14 Sur 24 Sur 0 -- -- 88
2021-02-25 06:00:00 6.7 15 Sur 21 Sudoeste 0 -- -- 89
2021-02-25 05:00:00 6.9 3 Sudoeste 8 Sur 0 -- -- 88
2021-02-25 04:00:00 7.3 2 Oeste 17 Sur 0 -- -- 86
2021-02-25 03:00:00 8.1 5 Sur 13 Sur 0 -- -- 82
2021-02-25 02:00:00 8.6 7 Sudoeste 11 Oeste 0 -- -- 81
2021-02-25 01:00:00 9.1 8 Oeste 10 Oeste 0 -- -- 81
2021-02-25 00:00:00 9.3 3 Noroeste 8 Norte 0 -- -- 82
2021-02-24 23:00:00 10.3 3 Nordeste 18 Sur 0 -- -- 78
2021-02-24 22:00:00 11 14 Sur 21 Sur 0 -- -- 77
2021-02-24 21:00:00 11.4 13 Sur 21 Sudoeste 0 -- -- 74
2021-02-24 20:00:00 12.2 11 Sur 17 Sur 0 -- -- 73
2021-02-24 19:00:00 13.9 10 Sur 21 Sur 0 -- -- 64
2021-02-24 18:00:00 16.3 17 Sur 30 Sudeste 0 -- -- 53
2021-02-24 17:00:00 17.7 14 Sudeste 35 Sur 0 -- -- 51
2021-02-24 16:00:00 18.2 12 Sur 30 Sur 0 -- -- 53
2021-02-24 15:00:00 17.8 20 Sur 35 Sur 0 -- -- 54
2021-02-24 14:00:00 17.2 13 Sur 36 Sur 0 -- -- 60
2021-02-24 13:00:00 16.2 11 Sur 42 Sur 0 -- -- 65
2021-02-24 12:00:00 15.4 15 Sur 36 Sur 0 -- -- 67
2021-02-24 11:00:00 14.5 14 Sur 31 Sur 0 -- -- 71
2021-02-24 10:00:00 13.5 10 Sur 27 Sur 0 -- -- 74
2021-02-24 09:00:00 11.5 12 Sur 30 Sudeste 0 -- -- 82
2021-02-24 08:00:00 10.7 9 Sur 28 Sudeste 0 -- -- 83
2021-02-24 07:00:00 11.5 14 Sudeste 28 Sudeste 0 -- -- 79
2021-02-24 06:00:00 11.9 19 Sudeste 38 Sudeste 0 -- -- 79
2021-02-24 05:00:00 12.3 19 Sudeste 34 Sudeste 0 -- -- 77
2021-02-24 04:00:00 12.4 10 Sudeste 26 Sur 0 -- -- 76
2021-02-24 03:00:00 12.3 9 Sudeste 22 Sudeste 0 -- -- 78
2021-02-24 02:00:00 11.2 13 Sudeste 23 Sudeste 0 -- -- 82
2021-02-24 01:00:00 10.8 10 Sur 25 Sudeste 0 -- -- 82
2021-02-24 00:00:00 11.2 13 Sur 24 Sur 0 -- -- 79
2021-02-23 23:00:00 11.2 14 Sur 27 Sudeste 0 -- -- 75
2021-02-23 22:00:00 11.1 17 Sur 30 Sur 0 -- -- 74
2021-02-23 21:00:00 10.5 18 Sur 24 Sur 0 -- -- 80
2021-02-23 20:00:00 10.5 14 Sur 21 Sur 0 -- -- 80
2021-02-23 19:00:00 11.8 9 Sur 22 Sur 0 -- -- 74
2021-02-23 18:00:00 13.5 15 Sur 28 Sur 0 -- -- 66
2021-02-23 17:00:00 14.4 17 Sur 39 Sur 0 -- -- 64
2021-02-23 16:00:00 15.1 15 Sur 35 Sur 0 -- -- 64
2021-02-23 15:00:00 15 21 Sur 41 Sur 0 -- -- 64
2021-02-23 14:00:00 14.5 17 Sur 37 Sur 0 -- -- 69
2021-02-23 13:00:00 13.6 18 Sur 36 Sur 0 -- -- 73
2021-02-23 12:00:00 12 14 Sur 27 Sur 0 -- -- 79
2021-02-23 11:00:00 10 8 Sur 25 Sur 0 -- -- 83
2021-02-23 10:00:00 8.8 13 Sur 20 Sudeste 0 -- -- 85
2021-02-23 09:00:00 7.6 13 Sur 22 Sur 0 -- -- 95
2021-02-23 08:00:00 6.7 4 Sudoeste 9 Noroeste 0 -- -- 96
2021-02-23 07:00:00 6.8 4 Noroeste 6 Noroeste 0 -- -- 96
2021-02-23 06:00:00 6.8 3 Noroeste 7 Sur 0 -- -- 96
2021-02-23 05:00:00 6.6 6 Sur 15 Sur 0 -- -- 96
2021-02-23 04:00:00 6.7 10 Sur 22 Sudoeste 0 -- -- 95
2021-02-23 03:00:00 6.7 13 Sudoeste 18 Sur 0 -- -- 96
2021-02-23 02:00:00 6.3 4 Sudoeste 7 Sur 0 -- -- 95
2021-02-23 01:00:00 6.4 7 Sudoeste 9 Sur 0 -- -- 94
2021-02-23 00:00:00 7.1 3 Sudeste 10 Sudeste 0 -- -- 94
2021-02-22 23:00:00 7.3 6 Sudeste 14 Sudeste 0 -- -- 94
2021-02-22 22:00:00 7.2 6 Sur 9 Sur 0 -- -- 95
2021-02-22 21:00:00 7.2 8 Sur 11 Sur 0.4 -- -- 94
2021-02-22 20:00:00 7.5 6 Sudeste 10 Sudeste 0.2 -- -- 92
2021-02-22 19:00:00 7.5 6 Sudeste 10 Sudeste 0 -- -- 93
2021-02-22 18:00:00 7.4 3 Sur 8 Este 1.4 -- -- 94
2021-02-22 17:00:00 7.4 5 Este 10 Este 2 -- -- 93
2021-02-22 16:00:00 7.1 6 Este 18 Nordeste 1.4 -- -- 92
2021-02-22 15:00:00 7.1 10 Este 15 Este 1 -- -- 92
2021-02-22 14:00:00 6.2 10 Este 18 Nordeste 0.6 -- -- 92
2021-02-22 13:00:00 6 12 Este 19 Este 0.8 -- -- 92
2021-02-22 12:00:00 5.3 3 Este 13 Este 1.6 -- -- 93
2021-02-22 11:00:00 4.8 7 Este 17 Este 0.4 -- -- 91
2021-02-22 10:00:00 5.1 4 Nordeste 24 Norte 0.4 -- -- 90
2021-02-22 09:00:00 4.9 10 Nordeste 23 Norte 2.2 -- -- 88
2021-02-22 08:00:00 5.2 6 Norte 15 Norte 6.4 -- -- 89
2021-02-22 07:00:00 5.8 6 Oeste 21 Oeste 6.4 -- -- 89
2021-02-22 06:00:00 7.1 19 Oeste 37 Oeste 9.4 -- -- 89
2021-02-22 05:00:00 10.1 5 Este 10 Este 0 -- -- 87
2021-02-22 04:00:00 10.4 8 Noroeste 12 Noroeste 0.4 -- -- 85
2021-02-22 03:00:00 11.2 3 Oeste 16 Este 0 -- -- 78
2021-02-22 02:00:00 12.5 7 Sudeste 27 Sudeste 0 -- -- 68
2021-02-22 01:00:00 13 7 Este 32 Sudeste 0 -- -- 62
2021-02-22 00:00:00 13.5 9 Sudeste 44 Sudeste 0 -- -- 59
2021-02-21 23:00:00 13.9 27 Sudeste 53 Sudeste 0 -- -- 57
2021-02-21 22:00:00 13.8 17 Sudeste 44 Sudeste 0 -- -- 57
2021-02-21 21:00:00 13.7 18 Sudeste 45 Sudeste 0 -- -- 58
2021-02-21 20:00:00 13.7 17 Sudeste 41 Sudeste 0 -- -- 58
2021-02-21 19:00:00 13.9 28 Sudeste 54 Sudeste 0 -- -- 58
2021-02-21 18:00:00 13.5 17 Sudeste 33 Sudeste 0 -- -- 60
2021-02-21 17:00:00 13.4 18 Sur 42 Sudeste 0 -- -- 62
2021-02-21 16:00:00 13.3 27 Sur 46 Sudoeste 0 -- -- 63
2021-02-21 15:00:00 13.8 24 Sur 41 Sur 0 -- -- 61
2021-02-21 14:00:00 14.5 25 Sur 41 Sur 0 -- -- 54
2021-02-21 13:00:00 14.7 24 Sur 54 Sudeste 0 -- -- 45
2021-02-21 12:00:00 15.6 33 Sudeste 57 Sur 0 -- -- 35
2021-02-21 11:00:00 13.8 16 Sur 30 Sur 0 -- -- 46
2021-02-21 10:00:00 13.4 19 Sur 35 Sudeste 0 -- -- 46
2021-02-21 09:00:00 11.5 14 Sudeste 38 Sur 0 -- -- 46
2021-02-21 08:00:00 11.6 18 Sur 49 Sur 0 -- -- 45
2021-02-21 07:00:00 11.9 24 Sur 46 Sur 0 -- -- 45
2021-02-21 06:00:00 12.7 28 Sur 51 Sur 0 -- -- 42
2021-02-21 05:00:00 12.8 22 Sur 49 Sur 0 -- -- 42
2021-02-21 04:00:00 13 18 Sur 50 Sudeste 0 -- -- 41
2021-02-21 03:00:00 13.7 25 Sudeste 54 Sudeste 0 -- -- 39
2021-02-21 02:00:00 13.7 14 Sudeste 48 Sudeste 0 -- -- 40
2021-02-21 01:00:00 14.1 12 Sudeste 57 Sudeste 0 -- -- 40
2021-02-21 00:00:00 14.7 31 Sudeste 63 Sudeste 0 -- -- 39
2021-02-20 23:00:00 15 29 Sudeste 54 Sudeste 0 -- -- 40
2021-02-20 22:00:00 15.4 30 Sudeste 59 Sudeste 0 -- -- 41
2021-02-20 21:00:00 15.9 32 Sudeste 59 Sudeste 0 -- -- 40
2021-02-20 20:00:00 16.5 31 Sudeste 55 Sudeste 0 -- -- 39
2021-02-20 19:00:00 17.1 28 Sudeste 47 Sudeste 0 -- -- 38
2021-02-20 18:00:00 17.9 19 Sudeste 41 Sur 0 -- -- 37
2021-02-20 17:00:00 18.9 19 Este 43 Sudeste 0 -- -- 34
2021-02-20 16:00:00 19.8 20 Sudeste 42 Este 0 -- -- 31
2021-02-20 15:00:00 20.3 23 Sudeste 45 Sudeste 0 -- -- 30
2021-02-20 14:00:00 20.2 23 Sudeste 54 Sur 0 -- -- 30
2021-02-20 13:00:00 19.4 27 Sudeste 45 Sudeste 0 -- -- 30
2021-02-20 12:00:00 18.5 22 Sudeste 44 Sudeste 0 -- -- 33
2021-02-20 11:00:00 17.5 19 Sudeste 43 Sudeste 0 -- -- 36
2021-02-20 10:00:00 12.6 7 Este 17 Noroeste 0 -- -- 53
2021-02-20 09:00:00 9.9 6 Oeste 14 Oeste 0 -- -- 61
2021-02-20 08:00:00 8.7 3 Oeste 13 Sudoeste 0 -- -- 63
2021-02-20 07:00:00 9 8 Oeste 15 Sudoeste 0 -- -- 62
2021-02-20 06:00:00 9 9 Noroeste 18 Oeste 0 -- -- 62
2021-02-20 05:00:00 8.4 6 Oeste 12 Noroeste 0 -- -- 67
2021-02-20 04:00:00 8.3 6 Oeste 14 Oeste 0 -- -- 67
2021-02-20 03:00:00 8.7 3 Sudoeste 14 Oeste 0 -- -- 64
2021-02-20 02:00:00 9.3 6 Oeste 15 Oeste 0 -- -- 62
2021-02-20 01:00:00 8.9 9 Oeste 14 Noroeste 0 -- -- 66
2021-02-20 00:00:00 10.3 7 Oeste 15 Oeste 0 -- -- 61
2021-02-19 23:00:00 10.5 8 Oeste 18 Oeste 0 -- -- 62
2021-02-19 22:00:00 10.8 8 Oeste 15 Oeste 0 -- -- 63
2021-02-19 21:00:00 11.5 7 Oeste 15 Noroeste 0 -- -- 63
2021-02-19 20:00:00 13.1 5 Norte 20 Sudeste 0 -- -- 58
2021-02-19 19:00:00 15.3 12 Sudeste 26 Sudeste 0 -- -- 49
2021-02-19 18:00:00 16.4 9 Sudeste 34 Sudeste 0 -- -- 46
2021-02-19 17:00:00 18 15 Sudeste 30 Sudeste 0 -- -- 39
2021-02-19 16:00:00 17.9 19 Sudeste 38 Sur 0 -- -- 42
2021-02-19 15:00:00 17.5 23 Sudeste 45 Sur 0 -- -- 43
2021-02-19 14:00:00 17.2 20 Sur 42 Sur 0 -- -- 46
2021-02-19 13:00:00 16.4 26 Sur 40 Sur 0 -- -- 48
2021-02-19 12:00:00 15.3 23 Sur 37 Sudoeste 0 -- -- 51
2021-02-19 11:00:00 10.5 5 Nordeste 9 Nordeste 0 -- -- 72
2021-02-19 10:00:00 7.9 2 Este 6 Noroeste 0 -- -- 77
2021-02-19 09:00:00 5.7 4 Oeste 6 Sudoeste 0 -- -- 87
2021-02-19 08:00:00 5 3 Sudoeste 10 Sur 0 -- -- 87
2021-02-19 07:00:00 5.4 5 Sur 12 Sur 0 -- -- 85
2021-02-19 06:00:00 5.4 4 Oeste 8 Sudoeste 0 -- -- 86
2021-02-19 05:00:00 5.6 2 Nordeste 5 Noroeste 0 -- -- 83
2021-02-19 04:00:00 6.4 0 Calma 5 Oeste 0 -- -- 80
2021-02-19 03:00:00 6.9 3 Sudeste 5 Sur 0 -- -- 80
2021-02-19 02:00:00 7.6 3 Este 5 Este 0 -- -- 76
2021-02-19 01:00:00 7.5 2 Sudeste 12 Sur 0 -- -- 78
2021-02-19 00:00:00 8.9 2 Norte 17 Sur 0 -- -- 73
2021-02-18 23:00:00 11.1 12 Sur 22 Sur 0 -- -- 61
2021-02-18 22:00:00 11.8 14 Sur 24 Sur 0 -- -- 59
2021-02-18 21:00:00 11.4 11 Sur 15 Sudoeste 0 -- -- 65
2021-02-18 20:00:00 12 2 Nordeste 12 Sur 0 -- -- 65
2021-02-18 19:00:00 13.4 12 Sudoeste 16 Sur 0 -- -- 58
2021-02-18 18:00:00 15.9 9 Sur 20 Sur 0 -- -- 52
2021-02-18 17:00:00 17.4 14 Sur 27 Sur 0 -- -- 44
2021-02-18 16:00:00 18.1 13 Sur 27 Sudeste 0 -- -- 44
2021-02-18 15:00:00 16.6 22 Sur 39 Sur 0 -- -- 48
2021-02-18 14:00:00 16.1 22 Sur 36 Sur 0 -- -- 50
2021-02-18 13:00:00 15.7 18 Sur 36 Sur 0 -- -- 52
2021-02-18 12:00:00 13.9 23 Sur 39 Sur 0 -- -- 55
2021-02-18 11:00:00 10.2 6 Sudeste 22 Sur 0 -- -- 79
2021-02-18 10:00:00 8.3 0 Calma 8 Sudeste 0 -- -- 86
2021-02-18 09:00:00 7.2 0 Calma 8 Sur 0 -- -- 89
2021-02-18 08:00:00 5.4 3 Oeste 7 Oeste 0 -- -- 91
2021-02-18 07:00:00 6.2 4 Sur 8 Sur 0 -- -- 91
2021-02-18 06:00:00 6.1 0 Calma 8 Sudeste 0 -- -- 91
2021-02-18 05:00:00 6.7 3 Noroeste 6 Oeste 0 -- -- 88
2021-02-18 04:00:00 6.9 3 Sudeste 5 Este 0 -- -- 90
2021-02-18 03:00:00 7.9 5 Sur 11 Sudoeste 0 -- -- 87
2021-02-18 02:00:00 7.5 6 Sudoeste 12 Sur 0 -- -- 88
2021-02-18 01:00:00 7.9 3 Sudoeste 6 Sur 0 -- -- 88
2021-02-18 00:00:00 8.9 3 Sur 9 Sudoeste 0 -- -- 84
2021-02-17 23:00:00 9.2 4 Sudeste 13 Sur 0 -- -- 84
2021-02-17 22:00:00 10.5 13 Sur 18 Sur 0 -- -- 79
2021-02-17 21:00:00 10.8 6 Sudoeste 13 Sur 0 -- -- 78
2021-02-17 20:00:00 11.5 6 Sudoeste 9 Sur 0 -- -- 76
2021-02-17 19:00:00 13.1 3 Sur 8 Sudoeste 0 -- -- 73
2021-02-17 18:00:00 14.8 3 Nordeste 12 Sur 0 -- -- 68
2021-02-17 17:00:00 15.3 9 Sudeste 25 Sur 0 -- -- 62
2021-02-17 16:00:00 14.8 19 Sur 31 Sur 0 -- -- 67
2021-02-17 15:00:00 15.3 16 Sur 36 Sur 0 -- -- 66
2021-02-17 14:00:00 16.8 16 Sur 31 Sur 0 -- -- 62
2021-02-17 13:00:00 14.1 8 Sur 20 Sur 0 -- -- 71
2021-02-17 12:00:00 11.3 4 Norte 9 Norte 0 -- -- 79
2021-02-17 11:00:00 9.2 3 Noroeste 6 Noroeste 0 -- -- 86
2021-02-17 10:00:00 6.1 0 Calma 5 Sudoeste 0 -- -- 96
2021-02-17 09:00:00 4.8 3 Este 8 Oeste 0 -- -- 95
2021-02-17 08:00:00 4.9 3 Oeste 5 Sudoeste 0 -- -- 94
2021-02-17 07:00:00 5.4 3 Oeste 7 Sudoeste 0 -- -- 94
2021-02-17 06:00:00 5.8 3 Sudoeste 5 Sur 0 -- -- 93
2021-02-17 05:00:00 6 4 Sudeste 10 Sur 0 -- -- 94
2021-02-17 04:00:00 6.6 6 Sur 8 Sur 0 -- -- 93
2021-02-17 03:00:00 6.9 7 Oeste 10 Sur 0 -- -- 91
2021-02-17 02:00:00 7.8 3 Sudeste 12 Sur 0 -- -- 90
2021-02-17 01:00:00 8.7 7 Sur 10 Sur 0 -- -- 90
2021-02-17 00:00:00 9.6 3 Nordeste 11 Sur 0 -- -- 85
2021-02-16 23:00:00 10.3 3 Sudoeste 8 Noroeste 0 -- -- 81
2021-02-16 22:00:00 10.6 2 Sudoeste 5 Sudeste 0 -- -- 79
2021-02-16 21:00:00 10.9 4 Sur 8 Sudoeste 0 -- -- 77
2021-02-16 20:00:00 11.8 5 Sur 13 Sur 0 -- -- 74
2021-02-16 19:00:00 12.5 7 Sur 10 Sur 0 -- -- 72
2021-02-16 18:00:00 14 5 Noroeste 14 Oeste 0 -- -- 64
2021-02-16 17:00:00 15.3 11 Oeste 18 Oeste 0 -- -- 59
2021-02-16 16:00:00 16.3 6 Sudoeste 20 Sur 0 -- -- 57
2021-02-16 15:00:00 14.7 10 Sudoeste 33 Sur 0 -- -- 61
2021-02-16 14:00:00 15.6 22 Sur 37 Sudoeste 0 -- -- 58
2021-02-16 13:00:00 14.9 17 Sur 30 Sur 0 -- -- 59
2021-02-16 12:00:00 11.1 5 Noroeste 11 Oeste 0 -- -- 75
2021-02-16 11:00:00 8.5 3 Oeste 5 Oeste 0 -- -- 84
2021-02-16 10:00:00 6.2 2 Noroeste 7 Sudoeste 0 -- -- 95
2021-02-16 09:00:00 3.9 3 Oeste 5 Sudoeste 0 -- -- 96
2021-02-16 08:00:00 3.4 2 Sudeste 4 Sudeste 0 -- -- 95
2021-02-16 07:00:00 4 2 Este 4 Sudeste 0 -- -- 95
2021-02-16 06:00:00 4.4 2 Sudoeste 5 Sudeste 0 -- -- 93
2021-02-16 05:00:00 5.1 2 Este 6 Sudoeste 0 -- -- 92
2021-02-16 04:00:00 5.5 5 Sudoeste 9 Sur 0 -- -- 92
2021-02-16 03:00:00 5.8 2 Sudoeste 5 Nordeste 0 -- -- 91
2021-02-16 02:00:00 6.3 2 Sur 5 Sudoeste 0 -- -- 90
2021-02-16 01:00:00 6.4 2 Este 4 Este 0 -- -- 89
2021-02-16 00:00:00 6.8 3 Sur 17 Sur 0 -- -- 87
2021-02-15 23:00:00 6.4 13 Sur 18 Sur 0 -- -- 89
2021-02-15 22:00:00 6.2 15 Sur 20 Sur 0 -- -- 90
2021-02-15 21:00:00 7 14 Sur 27 Sur 0 -- -- 88
2021-02-15 20:00:00 7.7 19 Sur 27 Sur 0 -- -- 87
2021-02-15 19:00:00 9.2 15 Sur 22 Sur 0 -- -- 82
2021-02-15 18:00:00 12.1 10 Sur 25 Sur 0 -- -- 68
2021-02-15 17:00:00 13.8 18 Sur 26 Sudoeste 0 -- -- 64
2021-02-15 16:00:00 13.4 16 Sudoeste 32 Sur 0 -- -- 67
2021-02-15 15:00:00 13.9 18 Sur 30 Sur 0 -- -- 66
2021-02-15 14:00:00 12.2 14 Sudoeste 28 Sudoeste 0 -- -- 71
2021-02-15 13:00:00 12.2 20 Sudoeste 30 Sudoeste 0 -- -- 71
2021-02-15 12:00:00 11 18 Sudoeste 25 Sudoeste 0 -- -- 74
2021-02-15 11:00:00 8.9 13 Sur 28 Sur 0 -- -- 81
2021-02-15 10:00:00 7.6 20 Sur 27 Sur 0 -- -- 85
2021-02-15 09:00:00 5.6 19 Sur 27 Sur 0 -- -- 89
2021-02-15 08:00:00 5.8 19 Sur 25 Sur 0 -- -- 89
2021-02-15 07:00:00 4.9 2 Nordeste 5 Este 0 -- -- 91
2021-02-15 06:00:00 4.8 4 Este 12 Sur 0 -- -- 92
2021-02-15 05:00:00 4.6 3 Este 17 Sur 0 -- -- 91
2021-02-15 04:00:00 4.8 12 Sur 16 Sur 0 -- -- 89
2021-02-15 03:00:00 5.1 6 Sur 18 Sur 0 -- -- 89
2021-02-15 02:00:00 5.7 8 Sur 12 Sur 0 -- -- 87
2021-02-15 01:00:00 6.4 5 Este 18 Sur 0 -- -- 84
2021-02-15 00:00:00 6.5 11 Sur 17 Sur 0 -- -- 85
2021-02-14 23:00:00 6.7 16 Sur 23 Sur 0 -- -- 85
2021-02-14 22:00:00 7.5 10 Sur 17 Sur 0 -- -- 82
2021-02-14 21:00:00 7.8 2 Oeste 9 Noroeste 0 -- -- 79
2021-02-14 20:00:00 8.9 0 Calma 10 Sudeste 0 -- -- 74
2021-02-14 19:00:00 9.5 8 Sudeste 15 Sur 0 -- -- 72
2021-02-14 18:00:00 11.3 3 Sur 17 Sur 0 -- -- 67
2021-02-14 17:00:00 12.3 8 Sudeste 29 Sudeste 0 -- -- 65
2021-02-14 16:00:00 12.3 19 Sudeste 40 Sur 0 -- -- 66
2021-02-14 15:00:00 13.5 23 Sur 43 Sur 0 -- -- 62
2021-02-14 14:00:00 13.7 21 Sudeste 38 Sudeste 0 -- -- 58
2021-02-14 13:00:00 10.9 3 Norte 7 Noroeste 0 -- -- 70
2021-02-14 12:00:00 8.6 4 Noroeste 6 Noroeste 0 -- -- 71
2021-02-14 11:00:00 5.8 3 Noroeste 5 Noroeste 0 -- -- 81
2021-02-14 10:00:00 3.4 2 Noroeste 4 Noroeste 0 -- -- 91
2021-02-14 09:00:00 1.6 0 Calma 8 Sur 0 -- -- 94
2021-02-14 08:00:00 1.2 2 Sur 5 Sudoeste 0 -- -- 92
2021-02-14 07:00:00 1.7 3 Sudoeste 8 Sudoeste 0 -- -- 93
2021-02-14 06:00:00 2.1 2 Norte 5 Este 0 -- -- 92
2021-02-14 05:00:00 2.3 2 Sudeste 10 Sudoeste 0 -- -- 91
2021-02-14 04:00:00 3 6 Oeste 13 Este 0 -- -- 88
2021-02-14 03:00:00 4.3 5 Sudeste 13 Este 0 -- -- 87
2021-02-14 02:00:00 6 8 Este 14 Sudeste 0 -- -- 83
2021-02-14 01:00:00 6.1 2 Este 7 Norte 0 -- -- 79
2021-02-14 00:00:00 7.3 3 Sur 13 Sudoeste 0 -- -- 74
2021-02-13 23:00:00 7.5 3 Sudoeste 14 Oeste 0 -- -- 76
2021-02-13 22:00:00 8.5 3 Sudoeste 23 Noroeste 0 -- -- 73
2021-02-13 21:00:00 9.5 13 Noroeste 25 Noroeste 0 -- -- 70
2021-02-13 20:00:00 9.6 9 Noroeste 16 Noroeste 0 -- -- 69
2021-02-13 19:00:00 10.4 8 Noroeste 20 Noroeste 0 -- -- 67
2021-02-13 18:00:00 12 10 Norte 23 Noroeste 0 -- -- 61
2021-02-13 17:00:00 12.7 9 Noroeste 19 Noroeste 0 -- -- 67
2021-02-13 16:00:00 13 10 Noroeste 21 Noroeste 0 -- -- 67
2021-02-13 15:00:00 13.4 10 Noroeste 21 Noroeste 0 -- -- 63
2021-02-13 14:00:00 13.8 12 Noroeste 24 Oeste 0 -- -- 59
2021-02-13 13:00:00 13.5 10 Noroeste 18 Noroeste 0 -- -- 59
2021-02-13 08:00:00 -- -- -- -- -- -- -- -- --
2021-02-13 07:00:00 6.8 3 Sudoeste 14 Oeste 0 -- -- 87
2021-02-13 06:00:00 7.2 5 Oeste 19 Noroeste 0 -- -- 84
2021-02-13 05:00:00 7.8 9 Noroeste 25 Noroeste 0 -- -- 80
2021-02-13 04:00:00 8.9 14 Noroeste 25 Noroeste 0 -- -- 78
2021-02-13 03:00:00 9.5 13 Noroeste 21 Noroeste 0 -- -- 78
2021-02-13 02:00:00 9.5 8 Noroeste 24 Noroeste 0 -- -- 80
2021-02-13 01:00:00 9.2 9 Oeste 33 Noroeste 0 -- -- 82
2021-02-13 00:00:00 9.6 18 Noroeste 39 Noroeste 0 -- -- 81
2021-02-12 23:00:00 10.1 22 Noroeste 38 Noroeste 0 -- -- 81
2021-02-12 22:00:00 9.7 13 Noroeste 27 Norte 0 -- -- 84
2021-02-12 21:00:00 10.1 13 Noroeste 33 Noroeste 0 -- -- 83
2021-02-12 20:00:00 10 13 Norte 28 Noroeste 0.4 -- -- 84
2021-02-12 19:00:00 10.7 15 Noroeste 38 Noroeste 0 -- -- 81
2021-02-12 18:00:00 11.1 10 Noroeste 32 Noroeste 0 -- -- 81
2021-02-12 17:00:00 11.5 19 Noroeste 40 Noroeste 0 -- -- 79
2021-02-12 16:00:00 12.2 12 Oeste 31 Oeste 0 -- -- 78
2021-02-12 15:00:00 11.9 9 Noroeste 26 Oeste 0 -- -- 81
2021-02-12 14:00:00 11.3 12 Oeste 25 Noroeste 0.2 -- -- 90
2021-02-12 13:00:00 11.2 6 Oeste 22 Oeste 0.2 -- -- 91
2021-02-12 12:00:00 11 10 Oeste 32 Oeste 0.4 -- -- 94
2021-02-12 11:00:00 9.3 4 Noroeste 9 Oeste 0.2 -- -- 97
2021-02-12 10:00:00 8.3 3 Oeste 8 Sudeste 0.4 -- -- 97
2021-02-12 09:00:00 7.9 0 Calma 7 Sudeste 0.4 -- -- 97
2021-02-12 08:00:00 7.8 4 Sudeste 7 Sudeste 0.8 -- -- 97
2021-02-12 07:00:00 7.7 6 Sur 10 Sur 1 -- -- 96
2021-02-12 06:00:00 6.8 6 Oeste 9 Noroeste 0 -- -- 95
2021-02-12 05:00:00 7.2 2 Nordeste 5 Sur 0 -- -- 92
2021-02-12 04:00:00 7.5 2 Sudoeste 6 Oeste 0 -- -- 94
2021-02-12 03:00:00 7.8 3 Sudoeste 9 Sudoeste 0 -- -- 93
2021-02-12 02:00:00 7.8 4 Sudoeste 9 Sur 0 -- -- 93
2021-02-12 01:00:00 7.8 2 Noroeste 6 Oeste 0 -- -- 92
2021-02-12 00:00:00 8.1 3 Oeste 5 Sudoeste 0 -- -- 92
2021-02-11 23:00:00 8.4 3 Sudoeste 9 Oeste 0 -- -- 90
2021-02-11 22:00:00 9 4 Sur 7 Sur 0 -- -- 88
2021-02-11 21:00:00 10.2 2 Este 9 Sur 0 -- -- 83
2021-02-11 20:00:00 10.9 4 Sur 12 Sur 0 -- -- 81
2021-02-11 19:00:00 12 11 Sur 14 Sudoeste 0 -- -- 79
2021-02-11 18:00:00 13.7 3 Este 6 Este 0 -- -- 72
2021-02-11 17:00:00 14.4 3 Este 8 Nordeste 0 -- -- 68
2021-02-11 16:00:00 14.3 4 Nordeste 9 Nordeste 0 -- -- 67
2021-02-11 15:00:00 14 4 Norte 8 Norte 0 -- -- 67
2021-02-11 14:00:00 12.7 3 Norte 8 Noroeste 0 -- -- 66
2021-02-11 13:00:00 9.8 3 Nordeste 7 Nordeste 0 -- -- 72
2021-02-11 12:00:00 7.7 5 Noroeste 10 Nordeste 0 -- -- 80
2021-02-11 11:00:00 5.3 3 Nordeste 5 Norte 0 -- -- 89
2021-02-11 10:00:00 3.7 4 Noroeste 6 Noroeste 0 -- -- 96
2021-02-11 09:00:00 2.5 3 Noroeste 6 Sudoeste 0 -- -- 97
2021-02-11 08:00:00 1.8 3 Oeste 6 Noroeste 0 -- -- 96
2021-02-11 07:00:00 2.1 2 Norte 6 Sur 0 -- -- 96
2021-02-11 06:00:00 1.9 2 Este 7 Oeste 0 -- -- 96
2021-02-11 05:00:00 2.5 2 Sudoeste 4 Sur 0 -- -- 95
2021-02-11 04:00:00 2.9 2 Nordeste 8 Sur 0 -- -- 95
2021-02-11 03:00:00 2.6 4 Sudeste 6 Noroeste 0 -- -- 96
2021-02-11 02:00:00 2.4 0 Calma 8 Sudoeste 0 -- -- 95
2021-02-11 01:00:00 2.7 4 Oeste 7 Sudoeste 0 -- -- 94
2021-02-11 00:00:00 3.4 3 Este 6 Sur 0 -- -- 91
2021-02-10 23:00:00 4 4 Sur 9 Sudoeste 0 -- -- 90
2021-02-10 22:00:00 5.1 4 Sudeste 10 Sur 0 -- -- 88
2021-02-10 21:00:00 6.2 3 Sur 8 Sur 0 -- -- 85
2021-02-10 20:00:00 7.5 5 Este 13 Sudeste 0 -- -- 82
2021-02-10 19:00:00 7.8 4 Este 11 Sudeste 0 -- -- 82
2021-02-10 18:00:00 9 7 Sudeste 12 Sudeste 0 -- -- 80
2021-02-10 17:00:00 9.7 4 Nordeste 19 Noroeste 0 -- -- 78
2021-02-10 16:00:00 10.6 11 Noroeste 25 Noroeste 0 -- -- 70
2021-02-10 15:00:00 10.3 15 Noroeste 28 Noroeste 0 -- -- 72
2021-02-10 14:00:00 10.6 17 Oeste 26 Oeste 0 -- -- 67
2021-02-10 13:00:00 9.6 4 Nordeste 10 Nordeste 0 -- -- 72
2021-02-10 12:00:00 7.9 2 Norte 8 Este 0 -- -- 81
2021-02-10 11:00:00 6.2 5 Este 8 Este 0 -- -- 88
2021-02-10 10:00:00 5.1 3 Sudeste 5 Este 0.2 -- -- 92
2021-02-10 09:00:00 4.3 4 Noroeste 19 Noroeste 1.2 -- -- 93
2021-02-10 08:00:00 4.7 5 Noroeste 14 Noroeste 2.4 -- -- 95
2021-02-10 07:00:00 4.6 4 Noroeste 6 Sur 1.8 -- -- 94
2021-02-10 06:00:00 4.7 7 Sudoeste 13 Sur 0 -- -- 92
2021-02-10 05:00:00 4.6 3 Noroeste 15 Sudoeste 0 -- -- 90
2021-02-10 04:00:00 4.3 9 Sudoeste 15 Sudoeste 0 -- -- 92
2021-02-10 03:00:00 5.2 3 Nordeste 8 Sudoeste 0 -- -- 89
2021-02-10 02:00:00 5.9 4 Noroeste 14 Sudeste 0 -- -- 86
2021-02-10 01:00:00 6.2 3 Oeste 27 Sur 0 -- -- 89
2021-02-10 00:00:00 5.9 6 Sur 12 Sur 0 -- -- 89
2021-02-09 23:00:00 6 2 Oeste 7 Sudoeste 0 -- -- 94
2021-02-09 22:00:00 6.5 3 Este 15 Sur 0 -- -- 92
2021-02-09 21:00:00 6.4 3 Sudoeste 12 Sur 0 -- -- 93
2021-02-09 20:00:00 6.9 2 Sudeste 12 Sudoeste 0 -- -- 93
2021-02-09 19:00:00 7.4 3 Nordeste 12 Sur 0.2 -- -- 93
2021-02-09 18:00:00 8.3 9 Sur 30 Sur 0 -- -- 89
2021-02-09 17:00:00 8.4 22 Sur 36 Sudoeste 1.4 -- -- 89
2021-02-09 16:00:00 9.2 11 Sudoeste 44 Sudeste 0.4 -- -- 83
2021-02-09 15:00:00 8.8 14 Sur 39 Sur 0.8 -- -- 82
2021-02-09 14:00:00 9.8 16 Sudeste 37 Sur 0 -- -- 70
2021-02-09 13:00:00 9.7 26 Sur 47 Sudeste 0 -- -- 70
2021-02-09 12:00:00 9.8 13 Sudeste 34 Sur 0 -- -- 70
2021-02-09 11:00:00 9.6 12 Sur 32 Sur 0 -- -- 72
2021-02-09 10:00:00 7.5 14 Sur 31 Sudoeste 0 -- -- 80
2021-02-09 09:00:00 4.4 4 Oeste 15 Sudeste 0 -- -- 97
2021-02-09 08:00:00 4.2 0 Calma 5 Noroeste 0 -- -- 96
2021-02-09 07:00:00 4.6 0 Calma 5 Sudoeste 0 -- -- 96
2021-02-09 06:00:00 4.4 4 Sudoeste 8 Sur 0 -- -- 96
2021-02-09 05:00:00 4.2 3 Oeste 4 Oeste 0 -- -- 95
2021-02-09 04:00:00 4 0 Calma 8 Sudoeste 0 -- -- 94
2021-02-09 03:00:00 4.1 4 Sudoeste 10 Sur 0 -- -- 93
2021-02-09 02:00:00 5 4 Noroeste 8 Sur 0 -- -- 90
2021-02-09 01:00:00 5.6 5 Sur 9 Sur 0 -- -- 89
2021-02-09 00:00:00 6.7 2 Sudoeste 9 Sur 0 -- -- 87
2021-02-08 23:00:00 6.8 6 Sur 9 Sur 0 -- -- 85
2021-02-08 22:00:00 7.2 5 Sudeste 10 Este 0 -- -- 84
2021-02-08 21:00:00 7.8 3 Sur 10 Sudeste 0 -- -- 80
2021-02-08 20:00:00 7.9 4 Sur 15 Este 0 -- -- 80
2021-02-08 19:00:00 9.1 3 Noroeste 18 Sudoeste 0 -- -- 72
2021-02-08 18:00:00 9.9 8 Oeste 32 Oeste 0 -- -- 66
2021-02-08 17:00:00 11.1 16 Oeste 42 Oeste 0 -- -- 64
2021-02-08 16:00:00 12.1 15 Oeste 33 Noroeste 0 -- -- 60
2021-02-08 15:00:00 11.5 5 Noroeste 18 Oeste 0 -- -- 71
2021-02-08 14:00:00 9.4 5 Nordeste 9 Nordeste 0 -- -- 81
2021-02-08 13:00:00 8.1 4 Nordeste 6 Norte 0 -- -- 87
2021-02-08 12:00:00 6.7 0 Calma 8 Sur 0 -- -- 90
2021-02-08 11:00:00 5.8 0 Calma 10 Oeste 0 -- -- 93
2021-02-08 10:00:00 5.4 2 Noroeste 6 Sudoeste 0.2 -- -- 94
2021-02-08 09:00:00 4.9 3 Sudoeste 9 Oeste 0 -- -- 94
2021-02-08 08:00:00 4.7 4 Oeste 9 Sudoeste 0 -- -- 94
2021-02-08 07:00:00 4.6 5 Sudoeste 8 Oeste 0 -- -- 95
2021-02-08 06:00:00 4.6 6 Oeste 10 Oeste 0 -- -- 95
2021-02-08 05:00:00 4.6 3 Oeste 9 Oeste 0 -- -- 95
2021-02-08 04:00:00 4.7 4 Oeste 6 Oeste 0 -- -- 95
2021-02-08 03:00:00 4.8 3 Oeste 4 Sudoeste 0 -- -- 94
2021-02-08 02:00:00 4.8 2 Oeste 9 Oeste 0.2 -- -- 94
2021-02-08 01:00:00 5 5 Oeste 11 Oeste 0 -- -- 93
2021-02-08 00:00:00 5.5 4 Sudoeste 7 Sur 0.2 -- -- 92
2021-02-07 23:00:00 5.8 6 Sur 9 Sur 0.4 -- -- 90
2021-02-07 22:00:00 6 7 Sur 10 Sur 0 -- -- 87
2021-02-07 21:00:00 6.6 5 Sur 26 Oeste 0.2 -- -- 81
2021-02-07 20:00:00 6.8 12 Sur 15 Sur 0 -- -- 74
2021-02-07 19:00:00 7 10 Sur 13 Sur 0 -- -- 78
2021-02-07 18:00:00 8.1 4 Este 16 Noroeste 0 -- -- 71
2021-02-07 17:00:00 9 9 Noroeste 18 Oeste 0 -- -- 60
2021-02-07 16:00:00 9.9 12 Noroeste 25 Noroeste 0 -- -- 59
2021-02-07 15:00:00 8.6 9 Noroeste 22 Oeste 0 -- -- 67
2021-02-07 14:00:00 8.3 12 Noroeste 21 Noroeste 0 -- -- 70
2021-02-07 13:00:00 7.5 12 Noroeste 25 Oeste 0 -- -- 73
2021-02-07 12:00:00 6.9 12 Oeste 27 Noroeste 0 -- -- 77
2021-02-07 11:00:00 5.8 12 Noroeste 26 Oeste 0 -- -- 80
2021-02-07 10:00:00 4.9 5 Noroeste 15 Oeste 0 -- -- 81
2021-02-07 09:00:00 4.5 7 Noroeste 24 Noroeste 0 -- -- 84
2021-02-07 08:00:00 4.5 12 Noroeste 25 Oeste 0 -- -- 83
2021-02-07 07:00:00 4.4 9 Noroeste 19 Noroeste 0 -- -- 82
2021-02-07 06:00:00 4.7 7 Norte 25 Norte 0 -- -- 80
2021-02-07 05:00:00 4.5 11 Noroeste 22 Noroeste 0 -- -- 81
2021-02-07 04:00:00 4.7 12 Noroeste 22 Noroeste 0 -- -- 80
2021-02-07 03:00:00 4.8 9 Noroeste 32 Noroeste 0 -- -- 79
2021-02-07 02:00:00 5.1 13 Noroeste 26 Noroeste 0 -- -- 79
2021-02-07 01:00:00 5.5 14 Noroeste 27 Noroeste 0 -- -- 80
2021-02-07 00:00:00 5.8 10 Norte 24 Noroeste 0 -- -- 82
2021-02-06 23:00:00 6.3 12 Noroeste 32 Noroeste 0 -- -- 79
2021-02-06 22:00:00 6.7 14 Norte 28 Noroeste 0 -- -- 79
2021-02-06 21:00:00 6.6 12 Noroeste 28 Noroeste 0 -- -- 80
2021-02-06 20:00:00 6.7 14 Noroeste 31 Oeste 0 -- -- 81
2021-02-06 19:00:00 7.4 16 Noroeste 25 Noroeste 0 -- -- 84
2021-02-06 18:00:00 8.1 11 Noroeste 22 Noroeste 0 -- -- 85
2021-02-06 17:00:00 8.4 9 Noroeste 28 Noroeste 0.2 -- -- 87
2021-02-06 16:00:00 8.9 9 Oeste 22 Sudoeste 0.6 -- -- 91
2021-02-06 15:00:00 9.1 14 Oeste 23 Oeste 0 -- -- 89
2021-02-06 14:00:00 9.5 10 Noroeste 19 Oeste 0.2 -- -- 95
2021-02-06 13:00:00 9.2 3 Norte 6 Noroeste 0.4 -- -- 96
2021-02-06 12:00:00 9.1 2 Norte 4 Noroeste 1.2 -- -- 96
2021-02-06 11:00:00 8.9 3 Nordeste 9 Sudoeste 2.6 -- -- 95
2021-02-06 10:00:00 8.9 4 Sur 8 Sudeste 2 -- -- 95
2021-02-06 09:00:00 8.7 0 Calma 4 Sudoeste 0.8 -- -- 94
2021-02-06 08:00:00 8.8 4 Sudoeste 9 Sudoeste 1 -- -- 93
2021-02-06 07:00:00 9.3 3 Nordeste 33 Sur 1.2 -- -- 90
2021-02-06 06:00:00 10.1 22 Sur 36 Sudoeste 0 -- -- 82
2021-02-06 05:00:00 9.3 3 Sudoeste 13 Norte 0 -- -- 86
2021-02-06 04:00:00 9.8 9 Sudoeste 19 Sur 0 -- -- 83
2021-02-06 03:00:00 10.1 4 Norte 23 Sur 0 -- -- 81
2021-02-06 02:00:00 10.4 5 Nordeste 18 Sur 0 -- -- 79
2021-02-06 01:00:00 10.1 13 Sur 20 Sur 0 -- -- 80
2021-02-06 00:00:00 10 13 Sur 18 Sur 0 -- -- 82
2021-02-05 23:00:00 10.4 18 Sur 22 Sur 0 -- -- 76
2021-02-05 22:00:00 10 15 Sur 18 Sur 0 -- -- 83
2021-02-05 21:00:00 10.3 12 Sur 18 Sur 0 -- -- 82
2021-02-05 20:00:00 10.7 13 Sur 18 Sur 0 -- -- 81
2021-02-05 19:00:00 12.1 6 Sur 23 Sur 0 -- -- 75
2021-02-05 18:00:00 13.9 16 Sur 29 Sudoeste 0 -- -- 69
2021-02-05 17:00:00 15.6 18 Sudoeste 35 Sur 0 -- -- 63
2021-02-05 16:00:00 17.7 16 Sudoeste 36 Sur 0 -- -- 57
2021-02-05 15:00:00 18.4 15 Sur 38 Sudeste 0 -- -- 47
2021-02-05 14:00:00 17.9 17 Sudeste 32 Sudeste 0 -- -- 51
2021-02-05 13:00:00 15.3 4 Norte 8 Noroeste 0 -- -- 66
2021-02-05 12:00:00 13.1 4 Este 9 Este 0 -- -- 76
2021-02-05 11:00:00 11 4 Nordeste 6 Nordeste 0 -- -- 82
2021-02-05 10:00:00 9 3 Sudeste 6 Sur 0 -- -- 91
2021-02-05 09:00:00 8 3 Este 6 Sudeste 0 -- -- 91
2021-02-05 08:00:00 8 3 Nordeste 7 Sur 0 -- -- 89
2021-02-05 07:00:00 8.5 4 Sudoeste 10 Oeste 0 -- -- 88
2021-02-05 06:00:00 8.9 6 Noroeste 10 Noroeste 0 -- -- 86
2021-02-05 05:00:00 9 3 Sur 12 Sudoeste 0 -- -- 87
2021-02-05 04:00:00 9 3 Nordeste 10 Oeste 0 -- -- 86
2021-02-05 03:00:00 9.5 4 Sudeste 13 Sudoeste 0 -- -- 84
2021-02-05 02:00:00 9.8 4 Sur 12 Sur 0 -- -- 83
2021-02-05 01:00:00 9.7 4 Sur 7 Sur 0 -- -- 84
2021-02-05 00:00:00 10.2 0 Calma 12 Nordeste 0 -- -- 83
2021-02-04 23:00:00 10.6 4 Oeste 17 Sur 0 -- -- 79
2021-02-04 22:00:00 11.4 14 Sur 24 Sur 0 -- -- 79
2021-02-04 21:00:00 12.4 12 Sur 23 Sur 0 -- -- 75
2021-02-04 20:00:00 12.1 12 Sur 15 Sudoeste 0 -- -- 73
2021-02-04 19:00:00 13.3 13 Sur 17 Sur 0 -- -- 67
2021-02-04 18:00:00 15.3 10 Sur 19 Sudeste 0 -- -- 59
2021-02-04 17:00:00 16.8 13 Sudeste 33 Sur 0 -- -- 55
2021-02-04 16:00:00 17.6 11 Sur 37 Sudeste 0 -- -- 55
2021-02-04 15:00:00 17.7 12 Sudeste 28 Sudeste 0 -- -- 55
2021-02-04 14:00:00 17.8 18 Sur 33 Sur 0 -- -- 53
2021-02-04 13:00:00 16 13 Sudeste 25 Sur 0 -- -- 59
2021-02-04 12:00:00 15.5 14 Sudeste 22 Este 0 -- -- 64
2021-02-04 11:00:00 13.6 2 Norte 10 Noroeste 0 -- -- 73
2021-02-04 10:00:00 12 4 Noroeste 11 Oeste 0 -- -- 77
2021-02-04 09:00:00 11.7 2 Nordeste 11 Noroeste 0 -- -- 78
2021-02-04 08:00:00 12.6 4 Nordeste 26 Sur 0 -- -- 73
2021-02-04 07:00:00 12.7 18 Sur 33 Sur 0 -- -- 72
2021-02-04 06:00:00 12.4 16 Sur 30 Sur 0 -- -- 74
2021-02-04 05:00:00 10.9 8 Sudoeste 12 Sur 0 -- -- 84
2021-02-04 04:00:00 10.2 2 Oeste 10 Noroeste 0 -- -- 89
2021-02-04 03:00:00 10.1 3 Oeste 8 Sudoeste 0 -- -- 91
2021-02-04 02:00:00 9.4 5 Sudoeste 9 Oeste 0 -- -- 95
2021-02-04 01:00:00 9.1 4 Oeste 9 Sur 0 -- -- 96
2021-02-04 00:00:00 9.1 0 Calma 7 Sur 0 -- -- 96
2021-02-03 23:00:00 8.9 2 Oeste 8 Sudoeste 0 -- -- 93
2021-02-03 22:00:00 9.5 2 Sudoeste 6 Sur 0 -- -- 93
2021-02-03 21:00:00 10.4 0 Calma 6 Sudoeste 0 -- -- 93
2021-02-03 20:00:00 10.5 4 Sur 10 Sur 0 -- -- 92
2021-02-03 19:00:00 11 6 Sur 13 Sur 0 -- -- 91
2021-02-03 18:00:00 11.9 5 Sudoeste 6 Oeste 0 -- -- 90
2021-02-03 17:00:00 12.3 2 Nordeste 10 Sudoeste 0.4 -- -- 88
2021-02-03 16:00:00 12.2 5 Sudeste 12 Norte 0.6 -- -- 88
2021-02-03 15:00:00 13 3 Sudoeste 15 Norte 0.2 -- -- 79
2021-02-03 14:00:00 14.7 7 Este 24 Sudeste 0 -- -- 64
2021-02-03 13:00:00 14.6 10 Sudeste 28 Sur 0 -- -- 65
2021-02-03 12:00:00 13.8 12 Sudoeste 31 Sur 0 -- -- 66
2021-02-03 11:00:00 12.8 15 Sur 37 Sudeste 0 -- -- 66
2021-02-03 10:00:00 11.9 22 Sudeste 35 Sudeste 0 -- -- 68
2021-02-03 09:00:00 9.4 5 Oeste 12 Noroeste 0 -- -- 80
2021-02-03 08:00:00 9 5 Oeste 15 Sudeste 0 -- -- 80
2021-02-03 07:00:00 8.3 6 Oeste 9 Oeste 0 -- -- 84
2021-02-03 06:00:00 7.8 4 Norte 13 Noroeste 0 -- -- 86
2021-02-03 05:00:00 7.7 5 Oeste 11 Oeste 0 -- -- 87
2021-02-03 04:00:00 7.8 5 Oeste 13 Noroeste 0 -- -- 89
2021-02-03 03:00:00 7 7 Noroeste 20 Sudeste 0 -- -- 89
2021-02-03 02:00:00 7.2 3 Norte 10 Oeste 0 -- -- 90
2021-02-03 01:00:00 7.9 5 Noroeste 8 Sur 0 -- -- 87
2021-02-03 00:00:00 8.8 7 Sur 15 Sur 0 -- -- 85
2021-02-02 23:00:00 10.1 11 Sur 14 Sur 0 -- -- 79
2021-02-02 22:00:00 11.8 7 Sur 33 Sudoeste 0 -- -- 73
2021-02-02 21:00:00 11.8 12 Sur 23 Sur 0 -- -- 76
2021-02-02 20:00:00 11.9 14 Sur 18 Sur 0 -- -- 75
2021-02-02 19:00:00 12.8 14 Sur 18 Sur 0 -- -- 74
2021-02-02 18:00:00 14.5 9 Sur 12 Sur 0 -- -- 70
2021-02-02 17:00:00 16.3 5 Sur 21 Sur 0 -- -- 64
2021-02-02 16:00:00 16.9 14 Sur 26 Sur 0 -- -- 60
2021-02-02 15:00:00 17.2 8 Sudeste 18 Sur 0 -- -- 60
2021-02-02 14:00:00 16.1 6 Nordeste 13 Este 0 -- -- 67
2021-02-02 13:00:00 13.5 3 Nordeste 6 Nordeste 0 -- -- 80
2021-02-02 12:00:00 10.4 4 Nordeste 9 Nordeste 0 -- -- 90
2021-02-02 11:00:00 8 4 Nordeste 6 Nordeste 0 -- -- 98
2021-02-02 10:00:00 6.2 2 Noroeste 8 Sudoeste 0 -- -- 98
2021-02-02 09:00:00 5.8 3 Este 8 Este 0 -- -- 98
2021-02-02 08:00:00 6.3 3 Sudeste 12 Sur 0 -- -- 97
2021-02-02 07:00:00 6.4 2 Sudoeste 9 Sudoeste 0 -- -- 97
2021-02-02 06:00:00 6.1 3 Oeste 9 Noroeste 0 -- -- 96
2021-02-02 05:00:00 6.2 5 Sudoeste 8 Sudoeste 0 -- -- 95
2021-02-02 04:00:00 7.4 5 Sur 12 Sur 0 -- -- 95
2021-02-02 03:00:00 7.6 5 Sudoeste 10 Sur 0 -- -- 92
2021-02-02 02:00:00 8.9 3 Norte 10 Sudoeste 0 -- -- 91
2021-02-02 01:00:00 9.8 3 Sudeste 10 Sur 0 -- -- 88
2021-02-02 00:00:00 10.5 2 Este 11 Este 0 -- -- 88
2021-02-01 23:00:00 10.4 7 Sudeste 12 Sudeste 0 -- -- 89
2021-02-01 22:00:00 10.2 4 Este 7 Este 0 -- -- 90
2021-02-01 21:00:00 10.7 6 Sudeste 10 Este 0.2 -- -- 88
2021-02-01 20:00:00 11.2 5 Este 18 Este 0 -- -- 83
2021-02-01 19:00:00 11.1 9 Este 14 Este 0 -- -- 83
2021-02-01 18:00:00 11.4 9 Este 16 Este 0 -- -- 82
2021-02-01 17:00:00 11.6 7 Este 10 Este 0 -- -- 79
2021-02-01 16:00:00 11.8 2 Nordeste 30 Noroeste 0 -- -- 75
2021-02-01 15:00:00 12.4 12 Noroeste 28 Noroeste 0 -- -- 71
2021-02-01 14:00:00 13.2 10 Noroeste 25 Oeste 0 -- -- 61
2021-02-01 13:00:00 13.7 21 Oeste 32 Oeste 0 -- -- 58
2021-02-01 12:00:00 13.8 17 Oeste 28 Oeste 0 -- -- 59
2021-02-01 11:00:00 12.6 13 Oeste 22 Oeste 0 -- -- 63
2021-02-01 10:00:00 9.9 6 Oeste 19 Sudoeste 0 -- -- 73
2021-02-01 09:00:00 9.3 13 Oeste 29 Sudoeste 0 -- -- 74
2021-02-01 08:00:00 8.6 8 Oeste 20 Oeste 0 -- -- 78
2021-02-01 07:00:00 7.8 6 Sudeste 10 Sudeste 0 -- -- 93
2021-02-01 06:00:00 8 3 Oeste 12 Sur 0.2 -- -- 93
2021-02-01 05:00:00 7.5 6 Sudoeste 11 Sudoeste 0 -- -- 94
2021-02-01 04:00:00 7.9 3 Nordeste 12 Sur 0 -- -- 89
2021-02-01 03:00:00 7.8 6 Sudeste 16 Sur 0.2 -- -- 94
2021-02-01 02:00:00 7.5 5 Nordeste 13 Sur 0 -- -- 86
2021-02-01 01:00:00 8.5 6 Sur 13 Sur 0 -- -- 86
2021-02-01 00:00:00 7.2 4 Sur 33 Sudoeste 0 -- -- 91
2021-01-31 23:00:00 7.7 13 Oeste 19 Oeste 0 -- -- 98
2021-01-31 22:00:00 6.6 3 Norte 13 Sur 0 -- -- 94
2021-01-31 21:00:00 7.1 4 Sudoeste 10 Sudoeste 0 -- -- 94
2021-01-31 20:00:00 7.3 3 Oeste 13 Oeste 0 -- -- 93
2021-01-31 19:00:00 8.9 5 Norte 20 Este 0 -- -- 88
2021-01-31 18:00:00 9.7 5 Sudeste 17 Sudeste 0 -- -- 86
2021-01-31 17:00:00 10.6 8 Este 18 Este 0 -- -- 84
2021-01-31 16:00:00 11.7 10 Este 16 Este 0 -- -- 81
2021-01-31 15:00:00 11.5 7 Nordeste 10 Nordeste 0 -- -- 82
2021-01-31 14:00:00 10.1 3 Norte 16 Oeste 0 -- -- 82
2021-01-31 13:00:00 9.8 7 Oeste 28 Noroeste 0 -- -- 80
2021-01-31 12:00:00 10.2 10 Oeste 19 Oeste 0 -- -- 73
2021-01-31 11:00:00 8.8 3 Noroeste 17 Sudoeste 0 -- -- 76
2021-01-31 10:00:00 8.7 10 Oeste 24 Oeste 0 -- -- 73
2021-01-31 09:00:00 8.2 15 Oeste 31 Oeste 0 -- -- 76
2021-01-31 08:00:00 7.4 8 Oeste 21 Oeste 0 -- -- 83
2021-01-31 07:00:00 7.2 14 Oeste 32 Oeste 0.2 -- -- 84
2021-01-31 06:00:00 6.9 17 Oeste 28 Oeste 0 -- -- 85
2021-01-31 05:00:00 6.8 11 Oeste 26 Oeste 0 -- -- 83
2021-01-31 04:00:00 6.5 5 Sudoeste 15 Noroeste 0 -- -- 83
2021-01-31 03:00:00 7.1 7 Oeste 29 Oeste 0 -- -- 79
2021-01-31 02:00:00 7.5 17 Oeste 28 Oeste 0 -- -- 77
2021-01-31 01:00:00 6.6 8 Oeste 13 Sudoeste 0 -- -- 88
2021-01-31 00:00:00 5.9 7 Sudoeste 12 Sur 0 -- -- 94
2021-01-30 23:00:00 5.4 0 Calma 6 Sudoeste 0 -- -- 94
2021-01-30 22:00:00 5.4 3 Sudoeste 14 Sur 0 -- -- 94
2021-01-30 21:00:00 5.9 9 Sur 14 Sur 0.2 -- -- 91
2021-01-30 20:00:00 5.8 5 Sur 9 Sur 0.4 -- -- 90
2021-01-30 19:00:00 6.2 2 Sudeste 10 Este 0 -- -- 88
2021-01-30 18:00:00 6.7 5 Este 40 Noroeste 1.4 -- -- 84
2021-01-30 17:00:00 7.4 13 Nordeste 28 Este 0.6 -- -- 82
2021-01-30 16:00:00 8.8 13 Noroeste 49 Noroeste 0 -- -- 70
2021-01-30 15:00:00 12.5 29 Oeste 54 Oeste 0 -- -- 54
2021-01-30 14:00:00 12.8 23 Oeste 55 Oeste 0 -- -- 56
2021-01-30 13:00:00 12.7 26 Oeste 67 Oeste 0 -- -- 59
2021-01-30 12:00:00 12.8 24 Oeste 47 Oeste 0 -- -- 65
2021-01-30 11:00:00 12.1 10 Oeste 34 Oeste 0.2 -- -- 72
2021-01-30 10:00:00 10.1 14 Sudoeste 22 Oeste 0 -- -- 83
2021-01-30 09:00:00 8 10 Sudoeste 19 Sur 0 -- -- 90
2021-01-30 08:00:00 8.8 10 Sur 26 Oeste 0.4 -- -- 90
2021-01-30 07:00:00 9.7 6 Oeste 30 Oeste 2.8 -- -- 86
2021-01-30 06:00:00 7.8 6 Oeste 17 Noroeste 0 -- -- 95
2021-01-30 05:00:00 7.8 4 Nordeste 12 Sur 0 -- -- 93
2021-01-30 04:00:00 7.2 4 Oeste 6 Oeste 0 -- -- 94
2021-01-30 03:00:00 7.5 4 Sur 8 Sudoeste 0 -- -- 94
2021-01-30 02:00:00 7.3 2 Noroeste 5 Oeste 0 -- -- 92
2021-01-30 01:00:00 7.8 2 Norte 6 Oeste 0 -- -- 91
2021-01-30 00:00:00 8.1 4 Oeste 9 Oeste 0 -- -- 92